sensor_id;sensor_type;location;lat;lon;timestamp;P1;durP1;ratioP1;P2;durP2;ratioP2
14088;SDS011;7120;52.890;6.040;2023-04-15T00:01:46;11.57;;;5.73;;
14088;SDS011;7120;52.890;6.040;2023-04-15T00:04:11;9.80;;;5.30;;
14088;SDS011;7120;52.890;6.040;2023-04-15T00:06:37;7.13;;;5.33;;
14088;SDS011;7120;52.890;6.040;2023-04-15T00:09:03;8.20;;;5.40;;
14088;SDS011;7120;52.890;6.040;2023-04-15T00:11:29;8.97;;;5.43;;
14088;SDS011;7120;52.890;6.040;2023-04-15T00:13:54;9.63;;;5.10;;
14088;SDS011;7120;52.890;6.040;2023-04-15T00:16:19;12.50;;;6.23;;
14088;SDS011;7120;52.890;6.040;2023-04-15T00:18:45;7.73;;;5.20;;
14088;SDS011;7120;52.890;6.040;2023-04-15T00:21:10;8.27;;;5.70;;
14088;SDS011;7120;52.890;6.040;2023-04-15T00:23:36;9.00;;;5.37;;
14088;SDS011;7120;52.890;6.040;2023-04-15T00:26:01;9.70;;;5.77;;
14088;SDS011;7120;52.890;6.040;2023-04-15T00:28:27;12.10;;;5.60;;
14088;SDS011;7120;52.890;6.040;2023-04-15T00:30:53;9.80;;;5.33;;
14088;SDS011;7120;52.890;6.040;2023-04-15T00:33:18;8.43;;;5.30;;
14088;SDS011;7120;52.890;6.040;2023-04-15T00:35:43;9.07;;;5.63;;
14088;SDS011;7120;52.890;6.040;2023-04-15T00:38:09;10.27;;;5.50;;
14088;SDS011;7120;52.890;6.040;2023-04-15T00:40:34;9.23;;;5.97;;
14088;SDS011;7120;52.890;6.040;2023-04-15T00:43:00;9.67;;;6.10;;
14088;SDS011;7120;52.890;6.040;2023-04-15T00:45:26;8.93;;;6.47;;
14088;SDS011;7120;52.890;6.040;2023-04-15T00:47:52;8.50;;;5.70;;
14088;SDS011;7120;52.890;6.040;2023-04-15T00:50:17;10.13;;;5.90;;
14088;SDS011;7120;52.890;6.040;2023-04-15T00:52:43;8.17;;;6.50;;
14088;SDS011;7120;52.890;6.040;2023-04-15T00:55:08;10.80;;;6.33;;
14088;SDS011;7120;52.890;6.040;2023-04-15T00:57:35;12.47;;;6.80;;
14088;SDS011;7120;52.890;6.040;2023-04-15T01:00:01;8.47;;;6.40;;
14088;SDS011;7120;52.890;6.040;2023-04-15T01:02:28;10.87;;;6.83;;
14088;SDS011;7120;52.890;6.040;2023-04-15T01:04:55;9.20;;;6.30;;
14088;SDS011;7120;52.890;6.040;2023-04-15T01:07:21;12.60;;;6.10;;
14088;SDS011;7120;52.890;6.040;2023-04-15T01:09:46;9.17;;;6.10;;
14088;SDS011;7120;52.890;6.040;2023-04-15T01:12:12;11.47;;;6.77;;
14088;SDS011;7120;52.890;6.040;2023-04-15T01:14:40;10.10;;;7.63;;
14088;SDS011;7120;52.890;6.040;2023-04-15T01:17:05;9.53;;;6.20;;
14088;SDS011;7120;52.890;6.040;2023-04-15T01:19:31;13.90;;;7.10;;
14088;SDS011;7120;52.890;6.040;2023-04-15T01:21:57;9.03;;;6.83;;
14088;SDS011;7120;52.890;6.040;2023-04-15T01:24:23;9.43;;;7.03;;
14088;SDS011;7120;52.890;6.040;2023-04-15T01:26:51;8.27;;;6.87;;
14088;SDS011;7120;52.890;6.040;2023-04-15T01:29:18;12.20;;;6.73;;
14088;SDS011;7120;52.890;6.040;2023-04-15T01:31:50;11.97;;;6.80;;
14088;SDS011;7120;52.890;6.040;2023-04-15T01:34:16;9.77;;;7.20;;
14088;SDS011;7120;52.890;6.040;2023-04-15T01:36:42;13.03;;;8.17;;
14088;SDS011;7120;52.890;6.040;2023-04-15T01:39:07;13.47;;;8.10;;
14088;SDS011;7120;52.890;6.040;2023-04-15T01:41:33;14.00;;;7.57;;
14088;SDS011;7120;52.890;6.040;2023-04-15T01:43:58;11.57;;;7.50;;
14088;SDS011;7120;52.890;6.040;2023-04-15T01:46:23;10.17;;;6.77;;
14088;SDS011;7120;52.890;6.040;2023-04-15T01:48:49;15.13;;;7.93;;
14088;SDS011;7120;52.890;6.040;2023-04-15T01:51:14;11.97;;;7.37;;
14088;SDS011;7120;52.890;6.040;2023-04-15T01:53:40;10.40;;;7.80;;
14088;SDS011;7120;52.890;6.040;2023-04-15T01:56:06;14.07;;;8.13;;
14088;SDS011;7120;52.890;6.040;2023-04-15T01:58:32;10.40;;;8.07;;
14088;SDS011;7120;52.890;6.040;2023-04-15T02:00:57;13.93;;;8.67;;
14088;SDS011;7120;52.890;6.040;2023-04-15T02:03:23;12.60;;;7.60;;
14088;SDS011;7120;52.890;6.040;2023-04-15T02:05:49;13.97;;;8.50;;
14088;SDS011;7120;52.890;6.040;2023-04-15T02:08:15;12.23;;;8.53;;
14088;SDS011;7120;52.890;6.040;2023-04-15T02:10:41;11.83;;;8.70;;
14088;SDS011;7120;52.890;6.040;2023-04-15T02:13:06;17.37;;;8.10;;
14088;SDS011;7120;52.890;6.040;2023-04-15T02:15:31;13.33;;;8.73;;
14088;SDS011;7120;52.890;6.040;2023-04-15T02:17:57;13.93;;;8.53;;
14088;SDS011;7120;52.890;6.040;2023-04-15T02:20:24;11.17;;;8.77;;
14088;SDS011;7120;52.890;6.040;2023-04-15T02:22:50;10.70;;;8.33;;
14088;SDS011;7120;52.890;6.040;2023-04-15T02:25:16;11.10;;;9.00;;
14088;SDS011;7120;52.890;6.040;2023-04-15T02:27:42;12.13;;;8.60;;
14088;SDS011;7120;52.890;6.040;2023-04-15T02:30:08;12.87;;;9.30;;
14088;SDS011;7120;52.890;6.040;2023-04-15T02:32:34;12.33;;;8.53;;
14088;SDS011;7120;52.890;6.040;2023-04-15T02:35:06;11.47;;;9.10;;
14088;SDS011;7120;52.890;6.040;2023-04-15T02:37:33;12.57;;;9.27;;
14088;SDS011;7120;52.890;6.040;2023-04-15T02:40:05;12.30;;;9.70;;
14088;SDS011;7120;52.890;6.040;2023-04-15T02:42:31;13.77;;;9.03;;
14088;SDS011;7120;52.890;6.040;2023-04-15T02:44:57;14.47;;;9.60;;
14088;SDS011;7120;52.890;6.040;2023-04-15T02:47:22;12.30;;;9.30;;
14088;SDS011;7120;52.890;6.040;2023-04-15T02:49:48;15.43;;;10.57;;
14088;SDS011;7120;52.890;6.040;2023-04-15T02:52:13;12.40;;;9.93;;
14088;SDS011;7120;52.890;6.040;2023-04-15T02:54:38;15.83;;;10.83;;
14088;SDS011;7120;52.890;6.040;2023-04-15T02:57:04;17.97;;;11.37;;
14088;SDS011;7120;52.890;6.040;2023-04-15T02:59:30;15.37;;;10.90;;
14088;SDS011;7120;52.890;6.040;2023-04-15T03:01:56;11.87;;;10.27;;
14088;SDS011;7120;52.890;6.040;2023-04-15T03:04:24;14.63;;;10.90;;
14088;SDS011;7120;52.890;6.040;2023-04-15T03:06:50;14.30;;;11.17;;
14088;SDS011;7120;52.890;6.040;2023-04-15T03:09:16;16.33;;;11.33;;
14088;SDS011;7120;52.890;6.040;2023-04-15T03:11:41;15.83;;;11.77;;
14088;SDS011;7120;52.890;6.040;2023-04-15T03:14:06;17.07;;;11.90;;
14088;SDS011;7120;52.890;6.040;2023-04-15T03:16:31;15.13;;;11.50;;
14088;SDS011;7120;52.890;6.040;2023-04-15T03:18:57;13.70;;;11.30;;
14088;SDS011;7120;52.890;6.040;2023-04-15T03:21:22;14.87;;;11.97;;
14088;SDS011;7120;52.890;6.040;2023-04-15T03:23:47;14.00;;;12.23;;
14088;SDS011;7120;52.890;6.040;2023-04-15T03:26:23;16.43;;;13.17;;
14088;SDS011;7120;52.890;6.040;2023-04-15T03:28:54;18.33;;;13.10;;
14088;SDS011;7120;52.890;6.040;2023-04-15T03:31:20;20.17;;;12.83;;
14088;SDS011;7120;52.890;6.040;2023-04-15T03:33:45;17.83;;;13.30;;
14088;SDS011;7120;52.890;6.040;2023-04-15T03:36:11;18.37;;;13.30;;
14088;SDS011;7120;52.890;6.040;2023-04-15T03:38:36;18.57;;;13.43;;
14088;SDS011;7120;52.890;6.040;2023-04-15T03:41:01;20.87;;;14.57;;
14088;SDS011;7120;52.890;6.040;2023-04-15T03:43:27;19.57;;;13.90;;
14088;SDS011;7120;52.890;6.040;2023-04-15T03:45:52;20.00;;;14.17;;
14088;SDS011;7120;52.890;6.040;2023-04-15T03:48:18;19.83;;;14.37;;
14088;SDS011;7120;52.890;6.040;2023-04-15T03:50:43;21.27;;;14.53;;
14088;SDS011;7120;52.890;6.040;2023-04-15T03:53:10;24.07;;;15.03;;
14088;SDS011;7120;52.890;6.040;2023-04-15T03:55:35;19.80;;;15.13;;
14088;SDS011;7120;52.890;6.040;2023-04-15T03:58:01;21.77;;;14.90;;
14088;SDS011;7120;52.890;6.040;2023-04-15T04:00:26;19.30;;;14.27;;
14088;SDS011;7120;52.890;6.040;2023-04-15T04:02:51;19.07;;;15.33;;
14088;SDS011;7120;52.890;6.040;2023-04-15T04:05:17;20.50;;;14.73;;
14088;SDS011;7120;52.890;6.040;2023-04-15T04:07:42;18.00;;;14.43;;
14088;SDS011;7120;52.890;6.040;2023-04-15T04:10:07;19.70;;;14.43;;
14088;SDS011;7120;52.890;6.040;2023-04-15T04:12:33;19.97;;;14.63;;
14088;SDS011;7120;52.890;6.040;2023-04-15T04:14:58;18.17;;;14.47;;
14088;SDS011;7120;52.890;6.040;2023-04-15T04:17:24;20.47;;;15.57;;
14088;SDS011;7120;52.890;6.040;2023-04-15T04:19:49;21.67;;;14.70;;
14088;SDS011;7120;52.890;6.040;2023-04-15T04:22:14;25.43;;;15.57;;
14088;SDS011;7120;52.890;6.040;2023-04-15T04:24:40;20.10;;;15.53;;
14088;SDS011;7120;52.890;6.040;2023-04-15T04:27:05;23.47;;;14.70;;
14088;SDS011;7120;52.890;6.040;2023-04-15T04:29:30;22.17;;;15.30;;
14088;SDS011;7120;52.890;6.040;2023-04-15T04:31:56;19.87;;;15.70;;
14088;SDS011;7120;52.890;6.040;2023-04-15T04:34:21;21.50;;;15.60;;
14088;SDS011;7120;52.890;6.040;2023-04-15T04:36:47;21.20;;;15.63;;
14088;SDS011;7120;52.890;6.040;2023-04-15T04:39:12;21.90;;;17.13;;
14088;SDS011;7120;52.890;6.040;2023-04-15T04:41:37;24.80;;;17.10;;
14088;SDS011;7120;52.890;6.040;2023-04-15T04:44:03;25.97;;;16.87;;
14088;SDS011;7120;52.890;6.040;2023-04-15T04:46:28;24.37;;;17.73;;
14088;SDS011;7120;52.890;6.040;2023-04-15T04:48:54;23.43;;;17.53;;
14088;SDS011;7120;52.890;6.040;2023-04-15T04:51:19;26.23;;;18.03;;
14088;SDS011;7120;52.890;6.040;2023-04-15T04:53:45;25.80;;;18.13;;
14088;SDS011;7120;52.890;6.040;2023-04-15T04:56:10;24.27;;;17.03;;
14088;SDS011;7120;52.890;6.040;2023-04-15T04:58:36;24.87;;;17.70;;
14088;SDS011;7120;52.890;6.040;2023-04-15T05:01:02;24.47;;;17.37;;
14088;SDS011;7120;52.890;6.040;2023-04-15T05:03:29;24.43;;;17.67;;
14088;SDS011;7120;52.890;6.040;2023-04-15T05:05:54;26.13;;;19.13;;
14088;SDS011;7120;52.890;6.040;2023-04-15T05:08:20;25.50;;;18.37;;
14088;SDS011;7120;52.890;6.040;2023-04-15T05:10:45;25.50;;;18.10;;
14088;SDS011;7120;52.890;6.040;2023-04-15T05:13:10;29.70;;;18.13;;
14088;SDS011;7120;52.890;6.040;2023-04-15T05:15:36;26.50;;;18.07;;
14088;SDS011;7120;52.890;6.040;2023-04-15T05:18:03;24.50;;;17.70;;
14088;SDS011;7120;52.890;6.040;2023-04-15T05:20:29;23.03;;;17.67;;
14088;SDS011;7120;52.890;6.040;2023-04-15T05:22:54;23.93;;;18.17;;
14088;SDS011;7120;52.890;6.040;2023-04-15T05:25:19;21.97;;;17.93;;
14088;SDS011;7120;52.890;6.040;2023-04-15T05:27:45;21.67;;;17.73;;
14088;SDS011;7120;52.890;6.040;2023-04-15T05:30:10;20.63;;;17.87;;
14088;SDS011;7120;52.890;6.040;2023-04-15T05:32:36;23.20;;;16.93;;
14088;SDS011;7120;52.890;6.040;2023-04-15T05:35:01;22.17;;;16.07;;
14088;SDS011;7120;52.890;6.040;2023-04-15T05:37:27;23.20;;;16.47;;
14088;SDS011;7120;52.890;6.040;2023-04-15T05:39:52;19.50;;;16.47;;
14088;SDS011;7120;52.890;6.040;2023-04-15T05:42:17;20.67;;;16.67;;
14088;SDS011;7120;52.890;6.040;2023-04-15T05:44:43;20.83;;;16.80;;
14088;SDS011;7120;52.890;6.040;2023-04-15T05:47:08;19.83;;;15.50;;
14088;SDS011;7120;52.890;6.040;2023-04-15T05:49:34;19.50;;;15.87;;
14088;SDS011;7120;52.890;6.040;2023-04-15T05:52:00;20.30;;;15.57;;
14088;SDS011;7120;52.890;6.040;2023-04-15T05:54:26;18.10;;;15.57;;
14088;SDS011;7120;52.890;6.040;2023-04-15T05:56:52;17.63;;;14.43;;
14088;SDS011;7120;52.890;6.040;2023-04-15T05:59:17;18.70;;;15.40;;
14088;SDS011;7120;52.890;6.040;2023-04-15T06:01:43;16.90;;;14.70;;
14088;SDS011;7120;52.890;6.040;2023-04-15T06:04:09;16.00;;;14.10;;
14088;SDS011;7120;52.890;6.040;2023-04-15T06:06:35;16.90;;;14.47;;
14088;SDS011;7120;52.890;6.040;2023-04-15T06:09:01;16.40;;;14.07;;
14088;SDS011;7120;52.890;6.040;2023-04-15T06:11:26;16.27;;;13.63;;
14088;SDS011;7120;52.890;6.040;2023-04-15T06:13:52;15.13;;;12.90;;
14088;SDS011;7120;52.890;6.040;2023-04-15T06:16:17;16.43;;;13.80;;
14088;SDS011;7120;52.890;6.040;2023-04-15T06:18:42;19.07;;;13.17;;
14088;SDS011;7120;52.890;6.040;2023-04-15T06:21:09;14.80;;;12.77;;
14088;SDS011;7120;52.890;6.040;2023-04-15T06:23:34;13.90;;;12.40;;
14088;SDS011;7120;52.890;6.040;2023-04-15T06:26:00;16.20;;;12.47;;
14088;SDS011;7120;52.890;6.040;2023-04-15T06:28:26;14.80;;;13.20;;
14088;SDS011;7120;52.890;6.040;2023-04-15T06:30:52;16.27;;;13.50;;
14088;SDS011;7120;52.890;6.040;2023-04-15T06:33:18;15.47;;;12.93;;
14088;SDS011;7120;52.890;6.040;2023-04-15T06:35:43;13.40;;;12.00;;
14088;SDS011;7120;52.890;6.040;2023-04-15T06:38:09;15.00;;;13.10;;
14088;SDS011;7120;52.890;6.040;2023-04-15T06:40:35;14.47;;;12.20;;
14088;SDS011;7120;52.890;6.040;2023-04-15T06:43:00;13.83;;;12.37;;
14088;SDS011;7120;52.890;6.040;2023-04-15T06:45:26;13.60;;;12.20;;
14088;SDS011;7120;52.890;6.040;2023-04-15T06:47:51;14.47;;;11.87;;
14088;SDS011;7120;52.890;6.040;2023-04-15T06:50:16;12.83;;;11.53;;
14088;SDS011;7120;52.890;6.040;2023-04-15T06:52:42;13.57;;;11.80;;
14088;SDS011;7120;52.890;6.040;2023-04-15T06:55:07;14.30;;;12.43;;
14088;SDS011;7120;52.890;6.040;2023-04-15T06:57:34;12.67;;;11.43;;
14088;SDS011;7120;52.890;6.040;2023-04-15T06:59:59;12.60;;;11.30;;
14088;SDS011;7120;52.890;6.040;2023-04-15T07:02:25;12.90;;;11.50;;
14088;SDS011;7120;52.890;6.040;2023-04-15T07:04:51;13.40;;;11.77;;
14088;SDS011;7120;52.890;6.040;2023-04-15T07:07:16;12.33;;;11.03;;
14088;SDS011;7120;52.890;6.040;2023-04-15T07:09:42;13.47;;;12.07;;
14088;SDS011;7120;52.890;6.040;2023-04-15T07:12:08;13.50;;;12.17;;
14088;SDS011;7120;52.890;6.040;2023-04-15T07:14:33;13.10;;;11.70;;
14088;SDS011;7120;52.890;6.040;2023-04-15T07:16:58;13.67;;;11.00;;
14088;SDS011;7120;52.890;6.040;2023-04-15T07:19:24;13.30;;;11.83;;
14088;SDS011;7120;52.890;6.040;2023-04-15T07:21:50;13.57;;;11.63;;
14088;SDS011;7120;52.890;6.040;2023-04-15T07:24:15;12.23;;;11.03;;
14088;SDS011;7120;52.890;6.040;2023-04-15T07:26:43;12.57;;;11.37;;
14088;SDS011;7120;52.890;6.040;2023-04-15T07:29:09;14.03;;;10.83;;
14088;SDS011;7120;52.890;6.040;2023-04-15T07:31:34;13.03;;;10.50;;
14088;SDS011;7120;52.890;6.040;2023-04-15T07:34:01;11.60;;;9.87;;
14088;SDS011;7120;52.890;6.040;2023-04-15T07:36:27;10.90;;;9.73;;
14088;SDS011;7120;52.890;6.040;2023-04-15T07:38:53;11.43;;;10.23;;
14088;SDS011;7120;52.890;6.040;2023-04-15T07:41:19;10.53;;;9.27;;
14088;SDS011;7120;52.890;6.040;2023-04-15T07:43:45;12.40;;;9.80;;
14088;SDS011;7120;52.890;6.040;2023-04-15T07:46:11;10.33;;;9.23;;
14088;SDS011;7120;52.890;6.040;2023-04-15T07:48:36;12.17;;;9.13;;
14088;SDS011;7120;52.890;6.040;2023-04-15T07:51:02;10.90;;;8.80;;
14088;SDS011;7120;52.890;6.040;2023-04-15T07:53:27;10.83;;;9.47;;
14088;SDS011;7120;52.890;6.040;2023-04-15T07:55:52;10.37;;;8.03;;
14088;SDS011;7120;52.890;6.040;2023-04-15T07:58:18;10.20;;;7.80;;
14088;SDS011;7120;52.890;6.040;2023-04-15T08:00:43;42.63;;;39.03;;
14088;SDS011;7120;52.890;6.040;2023-04-15T08:03:09;7.50;;;6.57;;
14088;SDS011;7120;52.890;6.040;2023-04-15T08:05:34;8.23;;;7.33;;
14088;SDS011;7120;52.890;6.040;2023-04-15T08:08:00;7.00;;;6.40;;
14088;SDS011;7120;52.890;6.040;2023-04-15T08:10:25;7.20;;;6.50;;
14088;SDS011;7120;52.890;6.040;2023-04-15T08:12:51;7.80;;;7.00;;
14088;SDS011;7120;52.890;6.040;2023-04-15T08:15:18;7.63;;;6.93;;
14088;SDS011;7120;52.890;6.040;2023-04-15T08:17:44;6.97;;;6.33;;
14088;SDS011;7120;52.890;6.040;2023-04-15T08:20:10;7.10;;;6.50;;
14088;SDS011;7120;52.890;6.040;2023-04-15T08:22:37;6.00;;;5.40;;
14088;SDS011;7120;52.890;6.040;2023-04-15T08:25:02;6.30;;;5.70;;
14088;SDS011;7120;52.890;6.040;2023-04-15T08:27:28;7.30;;;5.87;;
14088;SDS011;7120;52.890;6.040;2023-04-15T08:29:53;5.43;;;4.40;;
14088;SDS011;7120;52.890;6.040;2023-04-15T08:32:18;5.53;;;5.03;;
14088;SDS011;7120;52.890;6.040;2023-04-15T08:34:44;5.23;;;4.73;;
14088;SDS011;7120;52.890;6.040;2023-04-15T08:37:09;5.17;;;4.67;;
14088;SDS011;7120;52.890;6.040;2023-04-15T08:39:35;4.77;;;4.37;;
14088;SDS011;7120;52.890;6.040;2023-04-15T08:42:01;4.33;;;3.93;;
14088;SDS011;7120;52.890;6.040;2023-04-15T08:44:32;4.70;;;4.30;;
14088;SDS011;7120;52.890;6.040;2023-04-15T08:47:01;4.83;;;4.10;;
14088;SDS011;7120;52.890;6.040;2023-04-15T08:49:29;6.47;;;4.10;;
14088;SDS011;7120;52.890;6.040;2023-04-15T08:51:59;4.50;;;4.10;;
14088;SDS011;7120;52.890;6.040;2023-04-15T08:54:26;4.83;;;4.03;;
14088;SDS011;7120;52.890;6.040;2023-04-15T08:56:52;3.90;;;3.60;;
14088;SDS011;7120;52.890;6.040;2023-04-15T08:59:18;7.93;;;7.40;;
14088;SDS011;7120;52.890;6.040;2023-04-15T09:01:46;4.93;;;3.43;;
14088;SDS011;7120;52.890;6.040;2023-04-15T09:04:11;3.93;;;3.60;;
14088;SDS011;7120;52.890;6.040;2023-04-15T09:06:37;5.63;;;5.13;;
14088;SDS011;7120;52.890;6.040;2023-04-15T09:09:04;4.90;;;3.93;;
14088;SDS011;7120;52.890;6.040;2023-04-15T09:11:29;3.83;;;3.53;;
14088;SDS011;7120;52.890;6.040;2023-04-15T09:13:55;4.90;;;4.40;;
14088;SDS011;7120;52.890;6.040;2023-04-15T09:16:20;6.17;;;4.50;;
14088;SDS011;7120;52.890;6.040;2023-04-15T09:18:46;6.27;;;4.37;;
14088;SDS011;7120;52.890;6.040;2023-04-15T09:21:13;6.30;;;4.77;;
14088;SDS011;7120;52.890;6.040;2023-04-15T09:23:41;4.70;;;4.20;;
14088;SDS011;7120;52.890;6.040;2023-04-15T09:26:18;5.70;;;3.67;;
14088;SDS011;7120;52.890;6.040;2023-04-15T09:28:44;4.63;;;3.17;;
14088;SDS011;7120;52.890;6.040;2023-04-15T09:31:09;6.13;;;3.40;;
14088;SDS011;7120;52.890;6.040;2023-04-15T09:33:35;3.50;;;3.17;;
14088;SDS011;7120;52.890;6.040;2023-04-15T09:36:02;3.60;;;3.30;;
14088;SDS011;7120;52.890;6.040;2023-04-15T09:38:29;8.17;;;7.57;;
14088;SDS011;7120;52.890;6.040;2023-04-15T09:40:56;5.50;;;4.07;;
14088;SDS011;7120;52.890;6.040;2023-04-15T09:43:22;4.37;;;3.20;;
14088;SDS011;7120;52.890;6.040;2023-04-15T09:46:01;4.33;;;3.50;;
14088;SDS011;7120;52.890;6.040;2023-04-15T09:48:26;4.37;;;3.97;;
14088;SDS011;7120;52.890;6.040;2023-04-15T09:50:52;3.67;;;3.37;;
14088;SDS011;7120;52.890;6.040;2023-04-15T09:53:22;3.57;;;3.23;;
14088;SDS011;7120;52.890;6.040;2023-04-15T09:55:55;4.27;;;3.33;;
14088;SDS011;7120;52.890;6.040;2023-04-15T09:58:23;2.90;;;2.70;;
14088;SDS011;7120;52.890;6.040;2023-04-15T10:00:52;5.03;;;4.50;;
14088;SDS011;7120;52.890;6.040;2023-04-15T10:03:22;3.47;;;2.80;;
14088;SDS011;7120;52.890;6.040;2023-04-15T10:05:52;3.10;;;2.73;;
14088;SDS011;7120;52.890;6.040;2023-04-15T10:08:20;11.77;;;10.53;;
14088;SDS011;7120;52.890;6.040;2023-04-15T10:10:54;5.27;;;2.87;;
14088;SDS011;7120;52.890;6.040;2023-04-15T10:13:20;3.73;;;2.93;;
14088;SDS011;7120;52.890;6.040;2023-04-15T10:16:06;3.97;;;3.33;;
14088;SDS011;7120;52.890;6.040;2023-04-15T10:18:36;4.70;;;2.37;;
14088;SDS011;7120;52.890;6.040;2023-04-15T10:21:04;4.50;;;2.93;;
14088;SDS011;7120;52.890;6.040;2023-04-15T10:23:31;2.73;;;2.47;;
14088;SDS011;7120;52.890;6.040;2023-04-15T10:25:56;3.03;;;2.20;;
14088;SDS011;7120;52.890;6.040;2023-04-15T10:28:23;2.60;;;2.07;;
14088;SDS011;7120;52.890;6.040;2023-04-15T10:30:50;2.80;;;2.13;;
14088;SDS011;7120;52.890;6.040;2023-04-15T10:33:17;3.23;;;1.77;;
14088;SDS011;7120;52.890;6.040;2023-04-15T10:35:45;2.93;;;2.07;;
14088;SDS011;7120;52.890;6.040;2023-04-15T10:41:19;2.80;;;2.00;;
14088;SDS011;7120;52.890;6.040;2023-04-15T10:44:00;2.73;;;1.93;;
14088;SDS011;7120;52.890;6.040;2023-04-15T10:46:37;5.53;;;1.87;;
14088;SDS011;7120;52.890;6.040;2023-04-15T10:49:14;1.90;;;1.77;;
14088;SDS011;7120;52.890;6.040;2023-04-15T10:54:13;2.20;;;1.80;;
14088;SDS011;7120;52.890;6.040;2023-04-15T10:56:43;3.17;;;2.97;;
14088;SDS011;7120;52.890;6.040;2023-04-15T10:59:09;1.70;;;1.60;;
14088;SDS011;7120;52.890;6.040;2023-04-15T11:01:53;2.13;;;1.60;;
14088;SDS011;7120;52.890;6.040;2023-04-15T11:07:38;2.57;;;1.70;;
14088;SDS011;7120;52.890;6.040;2023-04-15T11:12:43;4.17;;;1.80;;
14088;SDS011;7120;52.890;6.040;2023-04-15T11:18:10;2.57;;;2.00;;
14088;SDS011;7120;52.890;6.040;2023-04-15T11:23:19;1.50;;;1.20;;
14088;SDS011;7120;52.890;6.040;2023-04-15T11:25:53;1.83;;;1.33;;
14088;SDS011;7120;52.890;6.040;2023-04-15T11:28:19;1.60;;;1.47;;
14088;SDS011;7120;52.890;6.040;2023-04-15T11:30:44;2.07;;;1.40;;
14088;SDS011;7120;52.890;6.040;2023-04-15T11:33:10;3.33;;;1.40;;
14088;SDS011;7120;52.890;6.040;2023-04-15T11:35:38;3.17;;;1.67;;
14088;SDS011;7120;52.890;6.040;2023-04-15T11:38:09;2.63;;;1.47;;
14088;SDS011;7120;52.890;6.040;2023-04-15T11:40:36;24.37;;;22.20;;
14088;SDS011;7120;52.890;6.040;2023-04-15T11:45:33;3.97;;;2.20;;
14088;SDS011;7120;52.890;6.040;2023-04-15T11:48:09;3.50;;;1.40;;
14088;SDS011;7120;52.890;6.040;2023-04-15T11:50:36;2.20;;;1.60;;
14088;SDS011;7120;52.890;6.040;2023-04-15T11:53:04;2.17;;;1.70;;
14088;SDS011;7120;52.890;6.040;2023-04-15T11:55:31;2.23;;;1.87;;
14088;SDS011;7120;52.890;6.040;2023-04-15T12:00:46;20.57;;;18.57;;
14088;SDS011;7120;52.890;6.040;2023-04-15T12:03:23;2.77;;;2.03;;
14088;SDS011;7120;52.890;6.040;2023-04-15T12:06:10;3.37;;;2.13;;
14088;SDS011;7120;52.890;6.040;2023-04-15T12:08:50;3.47;;;2.00;;
14088;SDS011;7120;52.890;6.040;2023-04-15T12:11:16;2.77;;;1.90;;
14088;SDS011;7120;52.890;6.040;2023-04-15T12:13:45;3.60;;;2.27;;
14088;SDS011;7120;52.890;6.040;2023-04-15T12:16:12;3.47;;;2.00;;
14088;SDS011;7120;52.890;6.040;2023-04-15T12:18:37;3.37;;;2.00;;
14088;SDS011;7120;52.890;6.040;2023-04-15T12:21:03;5.47;;;2.03;;
14088;SDS011;7120;52.890;6.040;2023-04-15T12:23:35;3.77;;;2.17;;
14088;SDS011;7120;52.890;6.040;2023-04-15T12:26:04;4.80;;;2.67;;
14088;SDS011;7120;52.890;6.040;2023-04-15T12:28:30;6.37;;;3.53;;
14088;SDS011;7120;52.890;6.040;2023-04-15T12:30:56;4.77;;;2.63;;
14088;SDS011;7120;52.890;6.040;2023-04-15T12:33:21;5.23;;;2.90;;
14088;SDS011;7120;52.890;6.040;2023-04-15T12:35:46;3.83;;;2.03;;
14088;SDS011;7120;52.890;6.040;2023-04-15T12:38:12;5.20;;;1.87;;
14088;SDS011;7120;52.890;6.040;2023-04-15T12:40:37;5.43;;;2.10;;
14088;SDS011;7120;52.890;6.040;2023-04-15T12:43:03;4.43;;;2.23;;
14088;SDS011;7120;52.890;6.040;2023-04-15T12:45:28;6.43;;;5.90;;
14088;SDS011;7120;52.890;6.040;2023-04-15T12:47:53;3.90;;;1.90;;
14088;SDS011;7120;52.890;6.040;2023-04-15T12:50:19;2.47;;;1.70;;
14088;SDS011;7120;52.890;6.040;2023-04-15T12:52:44;5.10;;;2.17;;
14088;SDS011;7120;52.890;6.040;2023-04-15T12:55:09;5.70;;;2.70;;
14088;SDS011;7120;52.890;6.040;2023-04-15T12:57:36;6.57;;;2.60;;
14088;SDS011;7120;52.890;6.040;2023-04-15T13:00:01;5.43;;;2.23;;
14088;SDS011;7120;52.890;6.040;2023-04-15T13:02:27;6.00;;;3.07;;
14088;SDS011;7120;52.890;6.040;2023-04-15T13:04:53;7.67;;;2.90;;
14088;SDS011;7120;52.890;6.040;2023-04-15T13:07:19;47.50;;;43.17;;
14088;SDS011;7120;52.890;6.040;2023-04-15T13:09:45;5.73;;;2.93;;
14088;SDS011;7120;52.890;6.040;2023-04-15T13:12:10;4.30;;;2.23;;
14088;SDS011;7120;52.890;6.040;2023-04-15T13:14:37;6.47;;;2.17;;
14088;SDS011;7120;52.890;6.040;2023-04-15T13:17:03;9.30;;;3.83;;
14088;SDS011;7120;52.890;6.040;2023-04-15T13:19:34;3.63;;;1.80;;
14088;SDS011;7120;52.890;6.040;2023-04-15T13:22:00;4.87;;;1.87;;
14088;SDS011;7120;52.890;6.040;2023-04-15T13:24:25;5.63;;;3.97;;
14088;SDS011;7120;52.890;6.040;2023-04-15T13:26:51;4.77;;;2.00;;
14088;SDS011;7120;52.890;6.040;2023-04-15T13:29:17;7.33;;;3.03;;
14088;SDS011;7120;52.890;6.040;2023-04-15T13:31:42;4.83;;;2.10;;
14088;SDS011;7120;52.890;6.040;2023-04-15T13:34:08;4.10;;;1.93;;
14088;SDS011;7120;52.890;6.040;2023-04-15T13:36:33;4.27;;;2.43;;
14088;SDS011;7120;52.890;6.040;2023-04-15T13:38:58;6.37;;;2.80;;
14088;SDS011;7120;52.890;6.040;2023-04-15T13:41:24;6.87;;;1.80;;
14088;SDS011;7120;52.890;6.040;2023-04-15T13:43:49;4.47;;;2.10;;
14088;SDS011;7120;52.890;6.040;2023-04-15T13:46:15;6.90;;;1.93;;
14088;SDS011;7120;52.890;6.040;2023-04-15T13:48:40;4.23;;;1.53;;
14088;SDS011;7120;52.890;6.040;2023-04-15T13:51:06;6.67;;;2.00;;
14088;SDS011;7120;52.890;6.040;2023-04-15T13:53:32;4.90;;;1.77;;
14088;SDS011;7120;52.890;6.040;2023-04-15T13:55:58;8.47;;;1.90;;
14088;SDS011;7120;52.890;6.040;2023-04-15T13:58:23;5.23;;;1.33;;
14088;SDS011;7120;52.890;6.040;2023-04-15T14:00:48;4.80;;;1.70;;
14088;SDS011;7120;52.890;6.040;2023-04-15T14:03:14;5.17;;;1.60;;
14088;SDS011;7120;52.890;6.040;2023-04-15T14:05:39;9.87;;;2.17;;
14088;SDS011;7120;52.890;6.040;2023-04-15T14:08:05;3.53;;;1.60;;
14088;SDS011;7120;52.890;6.040;2023-04-15T14:10:30;7.17;;;2.07;;
14088;SDS011;7120;52.890;6.040;2023-04-15T14:12:55;6.27;;;1.57;;
14088;SDS011;7120;52.890;6.040;2023-04-15T14:15:21;9.80;;;2.40;;
14088;SDS011;7120;52.890;6.040;2023-04-15T14:17:46;6.57;;;1.80;;
14088;SDS011;7120;52.890;6.040;2023-04-15T14:20:11;3.03;;;1.90;;
14088;SDS011;7120;52.890;6.040;2023-04-15T14:22:38;5.10;;;1.10;;
14088;SDS011;7120;52.890;6.040;2023-04-15T14:25:04;4.33;;;1.40;;
14088;SDS011;7120;52.890;6.040;2023-04-15T14:27:30;6.90;;;1.90;;
14088;SDS011;7120;52.890;6.040;2023-04-15T14:29:55;5.37;;;2.73;;
14088;SDS011;7120;52.890;6.040;2023-04-15T14:32:23;6.33;;;2.67;;
14088;SDS011;7120;52.890;6.040;2023-04-15T14:34:49;6.90;;;2.07;;
14088;SDS011;7120;52.890;6.040;2023-04-15T14:37:15;5.60;;;1.73;;
14088;SDS011;7120;52.890;6.040;2023-04-15T14:39:40;9.53;;;2.20;;
14088;SDS011;7120;52.890;6.040;2023-04-15T14:42:05;7.50;;;1.93;;
14088;SDS011;7120;52.890;6.040;2023-04-15T14:44:31;6.40;;;2.47;;
14088;SDS011;7120;52.890;6.040;2023-04-15T14:46:56;6.87;;;2.07;;
14088;SDS011;7120;52.890;6.040;2023-04-15T14:49:23;5.93;;;1.90;;
14088;SDS011;7120;52.890;6.040;2023-04-15T14:51:48;8.97;;;2.40;;
14088;SDS011;7120;52.890;6.040;2023-04-15T14:54:14;6.80;;;2.30;;
14088;SDS011;7120;52.890;6.040;2023-04-15T14:56:39;7.47;;;2.17;;
14088;SDS011;7120;52.890;6.040;2023-04-15T14:59:05;4.83;;;1.67;;
14088;SDS011;7120;52.890;6.040;2023-04-15T15:01:30;7.80;;;1.70;;
14088;SDS011;7120;52.890;6.040;2023-04-15T15:03:55;6.53;;;2.13;;
14088;SDS011;7120;52.890;6.040;2023-04-15T15:06:21;7.73;;;1.50;;
14088;SDS011;7120;52.890;6.040;2023-04-15T15:08:47;6.27;;;2.03;;